KECS/ECS METAR and TAF weather

Enter ICAO airport designator
Station Type Date Time Source
KECS METAR 2018/07/19 06:55 UTC NOAA

KECS 190655Z AUTO 00000KT 10SM CLR 16/11 A3004 RMK AO2


Station Type Date Time Source
KECS Decoded METAR 2018/07/19 06:55 UTC NOAA

Station name not available
Jul 19, 2018 - 02:55 AM EDT / 2018.07.19 0655 UTC
Wind: Calm:0
Visibility: 10 mile(s):0
Sky conditions: clear
Temperature: 60 F (16 C)
Dew Point: 51 F (11 C)
Relative Humidity: 72%
Pressure (altimeter): 30.04 in. Hg (1017 hPa)
ob: KECS 190655Z AUTO 00000KT 10SM CLR 16/11 A3004 RMK AO2
cycle: 7

Station Type Date Time Source
KECS TAF UTC NOAA

Error!


Example: see airport list